Peach Orchard, Missouri
Current Conditions -  °F | °C
As of 12:53 AM on Monday 22 Dec 2014 (Local Time) from KPOF Reporting Station
Overcast Overcast  
Wind Chill: 42°   Ceiling: 3900
Heat Index: 42°   Visibility: 10mi
Dew Point: 33°   Wind: 3mph
Humidity: 70%   Direction: 90°E
Pressure: 29.89"   Gusts: NA
Location:  36.4472°N, 89.9037°W
Report Text: KPOF 220653Z AUTO 09003KT 10SM OVC039 06/01 A2989 RMK AO2 SLP125 T00560006
Loading
Personal Weather Stations






























Interactive Weather Map New forecast layout! Learn more

10-Day Weather Forecast

Advertisements
Track Severe Weather on mobile